Available data for KWHP from the past 2 hours
LA / WHITEMAN, CA
Metar
KWHP 210050Z 16006KT 10SM OVC035 19/09 A2998

00:50 UTC

Wind: 160° 6kt

Visibility: 10 SM

Sky: OVC 3500 ft

Temp: 19 deg C / 66.2 deg F

Dewpoint: 9 deg C / 48.2 deg F

Pressure: 29.98 inHg

Pireps (2)
SBA UA /OV RZS040010 /TM 0033 /FL360 /TP A320 /TB LGT CAT/RM AWC-WEB
SMO UA /OV KSMO260002/TM 2355/FL010/TP AS50/SK FEW010-TOP014